createdAt,value
2019-06-26T00:00:15.295Z,87.89
2019-06-26T00:01:15.302Z,87.79
2019-06-26T00:02:15.349Z,88.18
2019-06-26T00:03:15.371Z,87.89
2019-06-26T00:04:15.404Z,87.50
2019-06-26T00:05:15.444Z,87.79
2019-06-26T00:06:15.471Z,88.09
2019-06-26T00:07:15.506Z,87.70
2019-06-26T00:08:15.537Z,87.99
2019-06-26T00:09:15.575Z,87.89
2019-06-26T00:10:15.609Z,87.89
2019-06-26T00:11:15.644Z,87.70
2019-06-26T00:12:15.667Z,87.70
2019-06-26T00:13:25.663Z,88.14
2019-06-26T00:14:15.735Z,87.40
2019-06-26T00:15:15.782Z,87.50
2019-06-26T00:16:15.816Z,87.99
2019-06-26T00:17:15.840Z,88.28
2019-06-26T00:18:15.878Z,87.85
2019-06-26T00:19:15.898Z,87.75
2019-06-26T00:20:15.934Z,86.98
2019-06-26T00:21:15.968Z,87.70
2019-06-26T00:22:15.998Z,87.65
2019-06-26T00:23:16.040Z,87.85
2019-06-26T00:24:16.068Z,88.14
2019-06-26T00:25:18.951Z,88.33
2019-06-26T00:26:16.138Z,87.85
2019-06-26T00:27:16.164Z,88.04
2019-06-26T00:28:16.228Z,88.43
2019-06-26T00:29:16.231Z,88.72
2019-06-26T00:30:16.271Z,88.62
2019-06-26T00:31:16.299Z,88.33
2019-06-26T00:32:16.327Z,88.43
2019-06-26T00:33:16.586Z,88.14
2019-06-26T00:34:59.151Z,89.21
2019-06-26T00:35:59.005Z,88.82
2019-06-26T00:36:59.015Z,89.01
2019-06-26T00:37:59.046Z,88.62
2019-06-26T00:38:59.096Z,89.40
2019-06-26T00:39:59.333Z,89.21
2019-06-26T00:40:59.149Z,89.17
2019-06-26T00:41:59.178Z,89.40
2019-06-26T00:42:59.211Z,89.55
2019-06-26T00:43:59.254Z,89.84
2019-06-26T00:44:59.283Z,90.23
2019-06-26T00:45:59.320Z,90.04
2019-06-26T00:46:59.342Z,89.65
2019-06-26T00:47:59.383Z,90.23
2019-06-26T00:48:59.407Z,90.23
2019-06-26T00:49:59.449Z,90.23
2019-06-26T00:51:59.509Z,90.23
2019-06-26T00:52:59.542Z,90.33
2019-06-26T00:53:59.575Z,91.11
2019-06-26T00:54:59.609Z,90.91
2019-06-26T00:56:59.672Z,91.40
2019-06-26T00:57:59.716Z,91.16
2019-06-26T00:59:59.898Z,91.78
2019-06-26T01:00:59.820Z,91.35
2019-06-26T01:02:00.104Z,91.64
2019-06-26T01:02:59.871Z,92.22
2019-06-26T01:03:59.910Z,92.52
2019-06-26T01:04:59.938Z,92.42
2019-06-26T01:05:59.969Z,92.32
2019-06-26T01:07:00.000Z,92.42
2019-06-26T01:08:00.040Z,92.22
2019-06-26T01:09:00.069Z,92.13
2019-06-26T01:10:00.121Z,91.94
2019-06-26T01:11:00.267Z,92.42
2019-06-26T01:12:00.163Z,93.01
2019-06-26T01:13:00.199Z,92.32
2019-06-26T01:14:00.230Z,93.20
2019-06-26T01:15:00.275Z,93.10
2019-06-26T01:16:00.297Z,92.91
2019-06-26T01:17:00.332Z,93.01
2019-06-26T01:18:00.361Z,92.81
2019-06-26T01:19:00.397Z,93.20
2019-06-26T01:20:01.244Z,93.10
2019-06-26T01:21:00.466Z,93.29
2019-06-26T01:22:00.491Z,93.20
2019-06-26T01:23:00.523Z,93.20
2019-06-26T01:24:00.557Z,93.29
2019-06-26T01:25:00.600Z,93.44
2019-06-26T01:26:00.635Z,93.73
2019-06-26T01:27:00.654Z,93.73
2019-06-26T01:28:00.690Z,93.73
2019-06-26T01:29:00.729Z,93.54
2019-06-26T01:30:00.759Z,93.44
2019-06-26T01:31:00.797Z,93.54
2019-06-26T01:32:00.858Z,93.63
2019-06-26T01:33:03.489Z,94.12
2019-06-26T01:34:00.884Z,93.93
2019-06-26T01:36:00.948Z,93.73
2019-06-26T01:37:01.300Z,94.32
2019-06-26T01:38:01.012Z,94.60
2019-06-26T01:39:01.054Z,94.12
2019-06-26T01:40:01.145Z,94.42
2019-06-26T01:41:01.112Z,94.42
2019-06-26T01:42:01.370Z,94.32
2019-06-26T01:44:14.453Z,94.90
2019-06-26T01:47:01.306Z,94.76
2019-06-26T01:48:01.342Z,95.14
2019-06-26T01:49:01.379Z,95.04
2019-06-26T01:50:01.407Z,95.04
2019-06-26T01:51:01.446Z,95.14
2019-06-26T01:52:01.495Z,95.53
2019-06-26T01:53:01.506Z,95.53
2019-06-26T01:54:01.538Z,95.82
2019-06-26T01:55:01.571Z,96.41
2019-06-26T01:56:01.633Z,95.82
2019-06-26T01:57:01.638Z,96.21
2019-06-26T01:58:01.669Z,95.82
2019-06-26T01:59:01.701Z,96.01
2019-06-26T02:00:01.801Z,95.92
2019-06-26T02:01:01.778Z,96.06
2019-06-26T02:02:01.797Z,96.65
2019-06-26T02:03:02.004Z,96.31
2019-06-26T02:04:01.868Z,96.26
2019-06-26T02:05:01.925Z,96.41
2019-06-26T02:06:01.947Z,96.36
2019-06-26T02:07:01.964Z,96.79
2019-06-26T02:08:02.015Z,96.55
2019-06-26T02:09:02.027Z,96.75
2019-06-26T02:10:02.060Z,96.65
2019-06-26T02:11:02.095Z,97.23
2019-06-26T02:12:02.198Z,97.13
2019-06-26T02:13:02.165Z,97.13
2019-06-26T02:14:02.194Z,96.75
2019-06-26T02:15:02.291Z,96.84
2019-06-26T02:16:02.255Z,96.84
2019-06-26T02:17:02.604Z,97.42
2019-06-26T02:18:02.535Z,97.03
2019-06-26T02:19:02.354Z,97.42
2019-06-26T02:20:02.385Z,97.33
2019-06-26T02:21:02.418Z,97.13
2019-06-26T02:22:02.459Z,97.81
2019-06-26T02:23:02.480Z,98.00
2019-06-26T02:24:02.519Z,97.81
2019-06-26T02:25:03.302Z,98.00
2019-06-26T02:26:02.627Z,98.00
2019-06-26T02:27:02.644Z,98.58
2019-06-26T02:28:02.691Z,98.39
2019-06-26T02:29:02.676Z,98.39
2019-06-26T02:30:02.708Z,99.17
2019-06-26T02:31:02.746Z,98.68
2019-06-26T02:32:02.805Z,99.02
2019-06-26T02:33:02.816Z,99.07
2019-06-26T02:34:02.957Z,99.27
2019-06-26T02:35:02.872Z,99.36
2019-06-26T02:36:02.901Z,99.31
2019-06-26T02:37:02.951Z,99.80
2019-06-26T02:38:02.974Z,99.60
2019-06-26T02:39:03.004Z,99.70
2019-06-26T02:40:03.037Z,99.70
2019-06-26T02:41:03.063Z,99.80
2019-06-26T02:42:03.101Z,99.99
2019-06-26T02:43:06.841Z,99.99
2019-06-26T02:44:03.165Z,99.99
2019-06-26T02:45:03.198Z,99.99
2019-06-26T02:46:03.231Z,99.99
2019-06-26T02:47:18.164Z,99.99
2019-06-26T02:48:03.288Z,99.99
2019-06-26T02:49:03.320Z,99.99
2019-06-26T02:50:03.354Z,99.99
2019-06-26T02:51:03.386Z,99.99
2019-06-26T02:52:03.424Z,99.99
2019-06-26T02:53:03.453Z,99.99
2019-06-26T02:54:06.128Z,99.99
2019-06-26T02:55:03.519Z,99.99
2019-06-26T02:56:03.563Z,99.99
2019-06-26T02:57:03.792Z,99.99
2019-06-26T02:58:03.636Z,99.99
2019-06-26T02:59:51.211Z,99.99
2019-06-26T03:00:51.243Z,99.99
2019-06-26T03:01:51.280Z,99.99
2019-06-26T03:02:51.310Z,99.99
2019-06-26T03:03:51.346Z,99.99
2019-06-26T03:04:51.374Z,99.99
2019-06-26T03:05:51.404Z,99.99
2019-06-26T03:06:51.441Z,99.99
2019-06-26T03:07:51.479Z,99.99
2019-06-26T03:08:51.502Z,99.99
2019-06-26T03:09:51.535Z,99.99
2019-06-26T03:10:51.574Z,99.99
2019-06-26T03:11:51.611Z,99.99
2019-06-26T03:12:51.627Z,99.99
2019-06-26T03:13:51.984Z,99.99
2019-06-26T03:15:07.489Z,99.99
2019-06-26T03:15:51.730Z,99.99
2019-06-26T03:16:51.764Z,99.99
2019-06-26T03:17:55.766Z,99.99
2019-06-26T03:18:51.876Z,99.99
2019-06-26T03:19:51.852Z,99.99
2019-06-26T03:20:51.894Z,99.99
2019-06-26T03:21:51.917Z,99.99
2019-06-26T03:22:51.946Z,99.99
2019-06-26T03:23:51.991Z,99.99
2019-06-26T03:24:52.025Z,99.99
2019-06-26T03:25:52.067Z,99.99
2019-06-26T03:26:52.076Z,99.99
2019-06-26T03:27:52.109Z,99.99
2019-06-26T03:28:52.151Z,99.99
2019-06-26T03:29:52.170Z,99.99
2019-06-26T03:30:52.209Z,99.99
2019-06-26T03:31:52.236Z,99.99
2019-06-26T03:32:52.284Z,99.99
2019-06-26T03:33:52.308Z,99.99
2019-06-26T03:34:52.333Z,99.99
2019-06-26T03:35:52.374Z,99.99
2019-06-26T03:36:52.402Z,99.99
2019-06-26T03:37:52.427Z,99.99
2019-06-26T03:38:52.461Z,99.99
2019-06-26T03:39:52.504Z,99.99
2019-06-26T03:40:52.536Z,99.99
2019-06-26T03:41:52.573Z,99.99
2019-06-26T03:42:52.593Z,99.99
2019-06-26T03:43:52.626Z,99.99
2019-06-26T03:44:52.652Z,99.99
2019-06-26T03:45:52.682Z,99.99
2019-06-26T03:46:52.723Z,99.99
2019-06-26T03:47:52.755Z,99.99
2019-06-26T03:48:52.778Z,99.99
2019-06-26T03:49:52.812Z,99.99
2019-06-26T03:50:52.854Z,99.99
2019-06-26T03:51:52.882Z,99.99
2019-06-26T03:52:52.914Z,99.99
2019-06-26T03:53:52.940Z,99.99
2019-06-26T03:54:52.969Z,99.99
2019-06-26T03:55:53.004Z,99.99
2019-06-26T03:56:53.037Z,99.99
2019-06-26T03:57:53.068Z,99.99
2019-06-26T03:58:53.097Z,99.99
2019-06-26T03:59:53.138Z,99.99
2019-06-26T04:00:53.163Z,99.99
2019-06-26T04:01:53.192Z,99.99
2019-06-26T04:02:53.231Z,99.99
2019-06-26T04:03:53.257Z,99.99
2019-06-26T04:04:53.290Z,99.99
2019-06-26T04:05:53.319Z,99.99
2019-06-26T04:06:53.351Z,99.99
2019-06-26T04:07:53.385Z,99.99
2019-06-26T04:08:53.421Z,99.99
2019-06-26T04:09:53.529Z,99.99
2019-06-26T04:10:53.488Z,99.99
2019-06-26T04:11:53.510Z,99.99
2019-06-26T04:12:53.545Z,99.99
2019-06-26T04:13:53.577Z,99.99
2019-06-26T04:14:53.608Z,99.99
2019-06-26T04:15:53.640Z,99.99
2019-06-26T04:16:53.676Z,99.99
2019-06-26T04:17:53.717Z,99.99
2019-06-26T04:18:53.743Z,99.99
2019-06-26T04:19:53.774Z,99.99
2019-06-26T04:20:53.803Z,99.99
2019-06-26T04:21:53.830Z,99.99
2019-06-26T04:22:53.864Z,99.99
2019-06-26T04:23:53.901Z,99.99
2019-06-26T04:24:53.937Z,99.99
2019-06-26T04:25:53.961Z,99.99
2019-06-26T04:26:53.992Z,99.99
2019-06-26T04:27:54.029Z,99.99
2019-06-26T04:28:54.062Z,99.99
2019-06-26T04:29:54.094Z,99.99
2019-06-26T04:30:54.121Z,99.99
2019-06-26T04:31:54.157Z,99.99
2019-06-26T04:32:54.204Z,99.99
2019-06-26T04:33:54.216Z,99.99
2019-06-26T04:34:54.601Z,99.99
2019-06-26T04:35:54.279Z,99.99
2019-06-26T04:36:54.311Z,99.99
2019-06-26T04:37:54.350Z,99.99
2019-06-26T04:38:54.375Z,99.99
2019-06-26T04:39:54.420Z,99.99
2019-06-26T04:40:54.442Z,99.99
2019-06-26T04:41:54.476Z,99.99
2019-06-26T04:42:54.506Z,99.99
2019-06-26T04:43:54.544Z,99.99
2019-06-26T04:44:54.594Z,99.99
2019-06-26T04:45:58.409Z,99.99
2019-06-26T04:46:54.632Z,99.99
2019-06-26T04:47:54.674Z,99.99
2019-06-26T04:48:54.698Z,99.99
2019-06-26T04:49:54.729Z,99.99
2019-06-26T04:50:54.768Z,99.99
2019-06-26T04:51:54.794Z,99.99
2019-06-26T04:52:54.831Z,99.99
2019-06-26T04:53:55.758Z,99.99
2019-06-26T04:54:54.891Z,99.99
2019-06-26T04:55:54.919Z,99.99
2019-06-26T04:56:54.956Z,99.99
2019-06-26T04:57:54.990Z,99.99
2019-06-26T04:58:55.022Z,99.99
2019-06-26T04:59:55.053Z,99.99
2019-06-26T05:00:55.080Z,99.99
2019-06-26T05:01:55.133Z,99.99
2019-06-26T05:02:55.143Z,99.99
2019-06-26T05:03:55.182Z,99.99
2019-06-26T05:04:55.210Z,99.99
2019-06-26T05:05:55.250Z,99.99
2019-06-26T05:06:55.294Z,99.99
2019-06-26T05:07:55.305Z,99.99
2019-06-26T05:08:55.341Z,99.99
2019-06-26T05:09:55.370Z,99.99
2019-06-26T05:10:55.406Z,99.99
2019-06-26T05:11:55.445Z,99.99
2019-06-26T05:12:55.473Z,99.99
2019-06-26T05:13:55.508Z,99.99
2019-06-26T05:14:55.617Z,99.99
2019-06-26T05:15:55.580Z,99.99
2019-06-26T05:16:55.608Z,99.99
2019-06-26T05:17:55.660Z,99.99
2019-06-26T05:18:55.687Z,99.99
2019-06-26T05:19:55.788Z,99.99
2019-06-26T05:20:55.779Z,99.99
2019-06-26T05:21:55.761Z,99.99
2019-06-26T05:22:55.794Z,99.99
2019-06-26T05:23:55.829Z,99.99
2019-06-26T05:24:55.866Z,99.99
2019-06-26T05:25:55.893Z,99.99
2019-06-26T05:26:55.925Z,99.99
2019-06-26T05:27:55.964Z,99.99
2019-06-26T05:28:56.001Z,99.99
2019-06-26T05:29:56.030Z,99.99
2019-06-26T05:30:56.057Z,98.88
2019-06-26T05:31:56.092Z,98.68
2019-06-26T05:32:56.126Z,98.10
2019-06-26T05:33:56.164Z,97.52
2019-06-26T05:34:56.191Z,96.98
2019-06-26T05:35:56.230Z,96.50
2019-06-26T05:36:56.262Z,96.40
2019-06-26T05:37:56.348Z,95.72
2019-06-26T05:38:56.327Z,95.04
2019-06-26T05:39:56.365Z,95.33
2019-06-26T05:40:56.394Z,95.04
2019-06-26T05:41:56.425Z,95.72
2019-06-26T05:42:56.468Z,95.24
2019-06-26T05:43:56.524Z,95.14
2019-06-26T05:44:56.531Z,94.36
2019-06-26T05:45:56.554Z,95.04
2019-06-26T05:46:56.594Z,94.95
2019-06-26T05:47:56.626Z,95.14
2019-06-26T05:48:56.657Z,95.24
2019-06-26T05:49:56.696Z,94.95
2019-06-26T05:50:56.724Z,95.14
2019-06-26T05:51:56.756Z,95.24
2019-06-26T05:52:56.806Z,94.41
2019-06-26T05:53:56.828Z,94.21
2019-06-26T05:54:56.868Z,93.92
2019-06-26T05:55:56.891Z,93.54
2019-06-26T05:56:56.933Z,93.92
2019-06-26T05:57:56.958Z,93.44
2019-06-26T05:58:56.993Z,94.12
2019-06-26T05:59:57.035Z,94.07
2019-06-26T06:00:57.067Z,93.82
2019-06-26T06:01:57.092Z,93.34
2019-06-26T06:02:57.138Z,93.48
2019-06-26T06:03:57.167Z,93.00
2019-06-26T06:04:57.195Z,92.61
2019-06-26T06:05:57.228Z,91.74
2019-06-26T06:06:57.262Z,92.71
2019-06-26T06:07:57.297Z,92.03
2019-06-26T06:08:57.329Z,92.61
2019-06-26T06:09:57.364Z,92.51
2019-06-26T06:10:58.375Z,92.51
2019-06-26T06:11:57.456Z,91.93
2019-06-26T06:12:57.466Z,91.88
2019-06-26T06:13:57.504Z,91.20
2019-06-26T06:14:57.533Z,90.52
2019-06-26T06:15:57.567Z,89.84
2019-06-26T06:16:57.604Z,90.22
2019-06-26T06:17:57.647Z,89.98
2019-06-26T06:18:57.674Z,89.59
2019-06-26T06:19:57.704Z,89.29
2019-06-26T06:20:58.175Z,89.59
2019-06-26T06:21:57.775Z,89.00
2019-06-26T06:22:57.804Z,90.32
2019-06-26T06:23:57.848Z,89.93
2019-06-26T06:24:57.891Z,89.78
2019-06-26T06:25:57.910Z,88.71
2019-06-26T06:26:57.948Z,89.64
2019-06-26T06:27:57.981Z,90.32
2019-06-26T06:28:58.013Z,90.32
2019-06-26T06:29:58.055Z,90.03
2019-06-26T06:30:58.087Z,89.45
2019-06-26T06:31:58.117Z,89.39
2019-06-26T06:32:58.186Z,88.32
2019-06-26T06:33:58.189Z,89.78
2019-06-26T06:34:58.230Z,89.69
2019-06-26T06:35:58.261Z,88.52
2019-06-26T06:36:58.303Z,88.07
2019-06-26T06:37:58.326Z,87.78
2019-06-26T06:38:58.384Z,87.59
2019-06-26T06:39:58.394Z,88.07
2019-06-26T06:40:58.431Z,87.78
2019-06-26T06:41:58.475Z,87.10
2019-06-26T06:42:58.499Z,86.91
2019-06-26T06:43:58.543Z,87.53
2019-06-26T06:44:58.572Z,87.39
2019-06-26T06:45:58.609Z,87.59
2019-06-26T06:47:03.775Z,87.29
2019-06-26T06:47:58.677Z,87.20
2019-06-26T06:48:58.718Z,87.54
2019-06-26T06:49:58.747Z,87.59
2019-06-26T06:50:58.800Z,87.68
2019-06-26T06:51:58.819Z,86.36
2019-06-26T06:52:58.857Z,85.39
2019-06-26T06:53:58.886Z,85.39
2019-06-26T06:54:58.948Z,84.96
2019-06-26T06:55:58.970Z,85.74
2019-06-26T06:56:58.994Z,85.68
2019-06-26T06:57:59.030Z,85.54
2019-06-26T06:58:59.085Z,85.19
2019-06-26T06:59:59.106Z,84.22
2019-06-26T07:00:59.134Z,83.87
2019-06-26T07:01:59.177Z,82.65
2019-06-26T07:02:59.222Z,81.87
2019-06-26T07:03:59.557Z,81.57
2019-06-26T07:04:59.358Z,81.28
2019-06-26T07:05:59.319Z,82.12
2019-06-26T07:06:59.354Z,83.06
2019-06-26T07:07:59.390Z,82.90
2019-06-26T07:08:59.421Z,82.75
2019-06-26T07:09:59.463Z,82.16
2019-06-26T07:10:59.497Z,81.38
2019-06-26T07:11:59.535Z,81.28
2019-06-26T07:12:59.564Z,81.32
2019-06-26T07:13:59.602Z,80.70
2019-06-26T07:14:59.642Z,80.05
2019-06-26T07:15:59.683Z,79.12
2019-06-26T07:17:01.565Z,79.27
2019-06-26T07:17:59.754Z,79.02
2019-06-26T07:18:59.783Z,79.02
2019-06-26T07:19:59.820Z,78.89
2019-06-26T07:20:59.862Z,79.17
2019-06-26T07:21:59.891Z,79.51
2019-06-26T07:22:59.927Z,79.02
2019-06-26T07:23:59.967Z,78.44
2019-06-26T07:25:00.016Z,78.05
2019-06-26T07:26:00.038Z,78.14
2019-06-26T07:27:00.088Z,79.27
2019-06-26T07:28:01.892Z,78.92
2019-06-26T07:29:00.147Z,78.67
2019-06-26T07:30:00.200Z,77.79
2019-06-26T07:31:00.225Z,77.05
2019-06-26T07:32:00.264Z,76.52
2019-06-26T07:33:00.294Z,76.27
2019-06-26T07:34:00.332Z,76.27
2019-06-26T07:35:00.378Z,76.27
2019-06-26T07:36:00.406Z,76.07
2019-06-26T07:37:00.454Z,75.52
2019-06-26T07:38:00.563Z,75.43
2019-06-26T07:39:00.523Z,74.84
2019-06-26T07:40:02.292Z,74.38
2019-06-26T07:41:00.595Z,73.60
2019-06-26T07:42:00.640Z,73.80
2019-06-26T07:43:00.679Z,74.54
2019-06-26T07:44:48.278Z,74.25
2019-06-26T07:45:48.319Z,75.10
2019-06-26T07:46:52.040Z,75.49
2019-06-26T07:47:48.392Z,77.15
2019-06-26T07:48:48.428Z,76.17
2019-06-26T07:49:48.539Z,75.72
2019-06-26T07:50:48.507Z,74.74
2019-06-26T07:51:48.580Z,74.93
2019-06-26T07:52:48.582Z,75.39
2019-06-26T07:53:48.617Z,75.20
2019-06-26T07:54:48.664Z,75.23
2019-06-26T07:55:48.688Z,75.72
2019-06-26T07:56:49.621Z,75.43
2019-06-26T07:57:48.766Z,75.43
2019-06-26T07:58:48.806Z,75.04
2019-06-26T07:59:48.852Z,74.71
2019-06-26T08:00:48.884Z,75.52
2019-06-26T08:01:48.919Z,74.87
2019-06-26T08:02:48.949Z,73.99
2019-06-26T08:03:49.018Z,74.84
2019-06-26T08:04:49.037Z,74.84
2019-06-26T08:05:49.098Z,75.78
2019-06-26T08:06:49.160Z,75.59
2019-06-26T08:07:49.139Z,75.43
2019-06-26T08:08:49.179Z,74.97
2019-06-26T08:09:49.221Z,72.56
2019-06-26T08:10:49.267Z,72.50
2019-06-26T08:11:49.299Z,71.13
2019-06-26T08:12:49.332Z,70.09
2019-06-26T08:13:49.369Z,69.89
2019-06-26T08:14:49.406Z,70.97
2019-06-26T08:15:49.518Z,70.78
2019-06-26T08:16:49.514Z,71.07
2019-06-26T08:17:59.835Z,69.99
2019-06-26T08:18:49.570Z,69.73
2019-06-26T08:19:49.597Z,68.88
2019-06-26T08:21:07.275Z,68.40
2019-06-26T08:21:49.683Z,67.74
2019-06-26T08:22:49.718Z,68.04
2019-06-26T08:23:49.753Z,67.80
2019-06-26T08:24:49.794Z,69.50
2019-06-26T08:25:49.827Z,69.34
2019-06-26T08:26:49.870Z,69.93
2019-06-26T08:27:49.985Z,70.29
2019-06-26T08:28:49.946Z,69.73
2019-06-26T08:29:49.980Z,69.54
2019-06-26T08:30:50.023Z,68.98
2019-06-26T08:31:50.067Z,68.79
2019-06-26T08:32:50.116Z,68.36
2019-06-26T08:33:50.137Z,68.85
2019-06-26T08:34:50.209Z,68.30
2019-06-26T08:35:50.224Z,68.04
2019-06-26T08:36:50.359Z,67.65
2019-06-26T08:37:50.301Z,67.35
2019-06-26T08:38:50.341Z,67.19
2019-06-26T08:39:50.371Z,66.99
2019-06-26T08:40:50.428Z,67.35
2019-06-26T08:41:51.055Z,67.65
2019-06-26T08:42:50.487Z,68.04
2019-06-26T08:43:50.527Z,68.13
2019-06-26T08:44:50.576Z,69.31
2019-06-26T08:45:50.608Z,70.87
2019-06-26T08:46:50.645Z,70.39
2019-06-26T08:47:50.692Z,70.19
2019-06-26T08:48:52.088Z,69.73
2019-06-26T08:49:50.869Z,68.79
2019-06-26T08:50:50.802Z,67.94
2019-06-26T08:51:50.842Z,67.45
2019-06-26T08:52:50.883Z,67.35
2019-06-26T08:53:50.926Z,67.05
2019-06-26T08:54:50.969Z,67.65
2019-06-26T08:58:43.861Z,67.71
2019-06-26T08:59:43.898Z,68.04
2019-06-26T09:00:43.943Z,67.19
2019-06-26T09:01:43.981Z,67.25
2019-06-26T09:02:44.016Z,67.51
2019-06-26T09:03:44.061Z,67.68
2019-06-26T09:04:44.098Z,67.84
2019-06-26T09:05:48.471Z,67.29
2019-06-26T09:06:44.176Z,66.89
2019-06-26T09:07:44.219Z,66.33
2019-06-26T09:08:44.259Z,66.69
2019-06-26T09:09:44.295Z,66.33
2019-06-26T09:10:45.233Z,67.35
2019-06-26T09:11:44.373Z,67.87
2019-06-26T09:12:44.418Z,66.33
2019-06-26T09:13:44.464Z,66.17
2019-06-26T09:14:44.499Z,65.71
2019-06-26T09:15:44.538Z,65.81
2019-06-26T09:16:44.571Z,66.50
2019-06-26T09:17:44.613Z,68.52
2019-06-26T09:18:44.651Z,68.72
2019-06-26T09:19:44.698Z,68.56
2019-06-26T09:20:44.737Z,68.01
2019-06-26T09:21:44.772Z,67.61
2019-06-26T09:22:44.815Z,66.96
2019-06-26T09:23:44.852Z,66.83
2019-06-26T09:24:44.897Z,67.02
2019-06-26T09:25:44.938Z,66.93
2019-06-26T09:26:44.972Z,66.53
2019-06-26T09:27:45.008Z,65.58
2019-06-26T09:28:45.048Z,65.91
2019-06-26T09:29:45.090Z,65.65
2019-06-26T09:30:45.129Z,67.09
2019-06-26T09:31:45.168Z,67.15
2019-06-26T09:32:45.207Z,67.94
2019-06-26T09:33:45.246Z,67.29
2019-06-26T09:34:45.286Z,67.19
2019-06-26T09:35:45.331Z,66.50
2019-06-26T09:36:45.368Z,67.38
2019-06-26T09:37:45.404Z,66.60
2019-06-26T09:38:45.442Z,66.99
2019-06-26T09:39:45.485Z,67.29
2019-06-26T09:40:45.529Z,67.48
2019-06-26T09:41:45.572Z,66.73
2019-06-26T09:42:45.603Z,65.55
2019-06-26T09:43:45.644Z,66.96
2019-06-26T09:44:45.682Z,66.96
2019-06-26T09:45:45.730Z,67.35
2019-06-26T09:46:45.770Z,66.99
2019-06-26T09:47:45.805Z,66.20
2019-06-26T09:48:52.746Z,66.37
2019-06-26T09:49:45.896Z,67.22
2019-06-26T09:50:45.927Z,66.08
2019-06-26T09:51:45.969Z,66.30
2019-06-26T09:52:46.003Z,65.45
2019-06-26T09:53:47.863Z,65.36
2019-06-26T09:54:46.085Z,65.09
2019-06-26T09:55:46.124Z,63.71
2019-06-26T09:56:46.159Z,63.91
2019-06-26T09:57:46.198Z,64.01
2019-06-26T09:58:46.247Z,65.19
2019-06-26T09:59:46.282Z,64.50
2019-06-26T10:00:46.320Z,65.06
2019-06-26T10:01:46.368Z,64.28
2019-06-26T10:02:46.404Z,64.11
2019-06-26T10:03:46.440Z,64.14
2019-06-26T10:04:46.481Z,64.83
2019-06-26T10:05:46.518Z,65.06
2019-06-26T10:06:46.559Z,64.37
2019-06-26T10:07:46.611Z,63.91
2019-06-26T10:08:46.640Z,63.88
2019-06-26T10:09:46.687Z,62.30
2019-06-26T10:10:46.717Z,61.98
2019-06-26T10:11:46.760Z,62.84
2019-06-26T10:12:46.800Z,63.36
2019-06-26T10:13:46.839Z,63.56
2019-06-26T10:14:48.125Z,63.85
2019-06-26T10:15:47.933Z,63.95
2019-06-26T10:16:46.969Z,66.47
2019-06-26T10:17:47.000Z,66.30
2019-06-26T10:18:47.047Z,65.55
2019-06-26T10:19:47.080Z,64.53
2019-06-26T10:20:47.118Z,64.73
2019-06-26T10:21:47.160Z,63.39
2019-06-26T10:22:47.203Z,62.57
2019-06-26T10:23:47.237Z,63.84
2019-06-26T10:24:47.301Z,64.43
2019-06-26T10:25:47.319Z,64.14
2019-06-26T10:26:47.363Z,63.78
2019-06-26T10:27:47.399Z,63.88
2019-06-26T10:28:47.439Z,64.14
2019-06-26T10:29:47.479Z,63.84
2019-06-26T10:30:47.524Z,63.65
2019-06-26T10:31:47.572Z,64.14
2019-06-26T10:32:47.601Z,63.29
2019-06-26T10:33:47.650Z,62.93
2019-06-26T10:34:47.824Z,63.06
2019-06-26T10:35:47.726Z,64.21
2019-06-26T10:36:47.758Z,64.01
2019-06-26T10:37:47.798Z,64.89
2019-06-26T10:38:47.845Z,65.06
2019-06-26T10:39:47.879Z,65.25
2019-06-26T10:40:47.924Z,65.48
2019-06-26T10:41:47.966Z,64.21
2019-06-26T10:42:48.006Z,63.55
2019-06-26T10:43:48.054Z,62.60
2019-06-26T10:44:48.081Z,62.43
2019-06-26T10:46:35.695Z,63.23
2019-06-26T10:47:38.733Z,63.71
2019-06-26T10:48:38.599Z,63.23
2019-06-26T10:49:35.815Z,63.06
2019-06-26T10:50:47.849Z,63.32
2019-06-26T10:51:35.894Z,64.01
2019-06-26T10:52:35.927Z,63.32
2019-06-26T10:53:38.598Z,63.71
2019-06-26T10:54:36.006Z,64.11
2019-06-26T10:55:36.050Z,64.21
2019-06-26T10:56:36.084Z,64.86
2019-06-26T10:57:36.125Z,64.31
2019-06-26T10:58:36.180Z,63.65
2019-06-26T10:59:36.205Z,63.52
2019-06-26T11:00:36.249Z,63.39
2019-06-26T11:01:36.289Z,64.34
2019-06-26T11:02:36.376Z,64.57
2019-06-26T11:03:36.370Z,63.62
2019-06-26T11:04:36.405Z,62.24
2019-06-26T11:05:36.444Z,61.98
2019-06-26T11:06:37.316Z,61.68
2019-06-26T11:08:36.566Z,62.34
2019-06-26T11:09:36.601Z,62.18
2019-06-26T11:10:36.639Z,61.46
2019-06-26T11:12:19.240Z,62.34
2019-06-26T11:13:19.278Z,62.37
2019-06-26T11:14:19.323Z,62.01
2019-06-26T11:16:57.055Z,62.11
2019-06-26T11:20:53.093Z,64.70
2019-06-26T11:21:53.122Z,65.06
2019-06-26T11:22:53.168Z,66.04
2019-06-26T11:23:53.206Z,66.60
2019-06-26T11:24:55.871Z,67.58
2019-06-26T11:25:53.284Z,66.99
2019-06-26T11:26:53.320Z,66.89
2019-06-26T11:27:53.368Z,67.12
2019-06-26T11:28:53.404Z,65.65
2019-06-26T11:29:53.454Z,65.16
2019-06-26T11:30:53.477Z,65.62
2019-06-26T11:31:53.519Z,66.40
2019-06-26T11:32:53.563Z,67.15
2019-06-26T11:33:54.414Z,68.10
2019-06-26T11:34:53.642Z,68.49
2019-06-26T11:35:53.706Z,68.62
2019-06-26T11:37:03.681Z,68.13
2019-06-26T11:37:53.775Z,67.77
2019-06-26T11:38:53.798Z,66.99
2019-06-26T11:39:53.836Z,66.53
2019-06-26T11:40:53.890Z,65.68
2019-06-26T11:42:53.960Z,64.24
2019-06-26T11:43:53.994Z,64.24
2019-06-26T11:44:54.032Z,64.14
2019-06-26T11:45:54.073Z,64.73
2019-06-26T11:47:54.173Z,63.84
2019-06-26T11:48:54.498Z,64.31
2019-06-26T11:49:59.753Z,65.12
2019-06-26T11:50:54.265Z,64.34
2019-06-26T11:51:54.305Z,63.84
2019-06-26T11:53:54.513Z,64.79
2019-06-26T11:55:02.657Z,65.06
2019-06-26T11:55:54.470Z,65.25
2019-06-26T11:56:54.500Z,65.25
2019-06-26T11:57:54.539Z,65.58
2019-06-26T11:58:54.578Z,65.68
2019-06-26T11:59:54.624Z,65.09
2019-06-26T12:00:54.737Z,65.94
2019-06-26T12:01:54.700Z,66.04
2019-06-26T12:02:54.737Z,66.33
2019-06-26T12:03:54.777Z,66.24
2019-06-26T12:04:54.823Z,66.53
2019-06-26T12:06:10.517Z,65.29
2019-06-26T12:06:54.895Z,64.21
2019-06-26T12:07:54.943Z,64.63
2019-06-26T12:08:54.981Z,64.53
2019-06-26T12:10:37.634Z,64.63
2019-06-26T12:11:37.614Z,64.67
2019-06-26T12:12:37.670Z,65.45
2019-06-26T12:13:37.715Z,65.45
2019-06-26T12:14:37.738Z,65.55
2019-06-26T12:15:37.775Z,64.79
2019-06-26T12:16:37.814Z,65.94
2019-06-26T12:17:37.951Z,65.65
2019-06-26T12:18:37.888Z,65.75
2019-06-26T12:19:37.931Z,65.94
2019-06-26T12:22:28.330Z,66.73
2019-06-26T12:23:28.369Z,66.14
2019-06-26T12:24:28.412Z,66.53
2019-06-26T12:25:28.450Z,67.19
2019-06-26T12:26:28.489Z,66.63
2019-06-26T12:27:28.528Z,66.43
2019-06-26T12:28:28.564Z,65.58
2019-06-26T12:29:28.609Z,65.19
2019-06-26T12:30:28.640Z,65.19
2019-06-26T12:32:16.257Z,66.14
2019-06-26T12:33:16.289Z,66.43
2019-06-26T12:34:16.331Z,65.65
2019-06-26T12:35:19.001Z,65.94
2019-06-26T12:36:16.427Z,64.08
2019-06-26T12:37:16.442Z,64.47
2019-06-26T12:38:16.482Z,65.36
2019-06-26T12:39:16.521Z,66.11
2019-06-26T12:40:16.555Z,66.83
2019-06-26T12:41:16.634Z,67.19
2019-06-26T12:42:16.627Z,67.55
2019-06-26T12:43:16.682Z,67.51
2019-06-26T12:44:16.708Z,68.75
2019-06-26T12:45:16.742Z,68.55
2019-06-26T12:46:18.252Z,68.55
2019-06-26T12:47:16.820Z,68.79
2019-06-26T12:48:16.861Z,68.40
2019-06-26T12:49:16.898Z,68.20
2019-06-26T12:50:30.894Z,68.75
2019-06-26T12:51:16.965Z,68.65
2019-06-26T12:53:20.231Z,69.15
2019-06-26T12:54:19.651Z,70.15
2019-06-26T12:55:19.691Z,70.25
2019-06-26T12:56:19.729Z,68.91
2019-06-26T12:57:19.761Z,68.36
2019-06-26T12:58:20.351Z,67.68
2019-06-26T12:59:19.837Z,68.26
2019-06-26T13:00:19.881Z,68.36
2019-06-26T13:01:19.913Z,68.85
2019-06-26T13:02:19.955Z,69.34
2019-06-26T13:03:19.999Z,68.85
2019-06-26T13:04:20.028Z,68.46
2019-06-26T13:05:20.066Z,68.16
2019-06-26T13:06:20.098Z,68.43
2019-06-26T13:07:20.139Z,68.49
2019-06-26T13:08:20.186Z,69.14
2019-06-26T13:09:20.225Z,69.53
2019-06-26T13:10:20.250Z,69.01
2019-06-26T13:11:20.282Z,69.99
2019-06-26T13:12:20.378Z,69.24
2019-06-26T13:13:20.361Z,69.24
2019-06-26T13:14:20.402Z,68.75
2019-06-26T13:15:20.437Z,69.18
2019-06-26T13:16:20.467Z,68.78
2019-06-26T13:17:20.506Z,68.88
2019-06-26T13:18:20.559Z,68.91
2019-06-26T13:19:20.598Z,68.46